Sears, Michigan
Current Conditions -  °F | °C
As of 8:35 PM on Saturday 25 Oct 2014 (Local Time) from KRQB Reporting Station
Clear Clear  
Wind Chill: 53°   Ceiling: Unl
Heat Index: 53°   Visibility: 10mi
Dew Point: 38°   Wind: 8mph
Humidity: 57%   Direction: 280°W
Pressure: 29.8"   Gusts: NA
Location:  43.9°N, 85.18°W
Report Text: KRQB 260035Z AUTO 28007KT 10SM CLR 12/04 A2980 RMK AO2 T01190036
Loading
Personal Weather Stations






























Interactive Weather Map New forecast layout! Learn more

10-Day Weather Forecast

Advertisements
Track Severe Weather on mobile